Carteret, New Jersey
Current Conditions -  °F | °C
As of 1:35 AM on Monday 26 Jan 2015 (Local Time) from KLDJ Reporting Station
Overcast Overcast  
Wind Chill: 27°   Ceiling: 3100
Heat Index: 33°   Visibility: 10mi
Dew Point: 14°   Wind: 7mph
Humidity: 47%   Direction: 50°NE
Pressure: 30.03"   Gusts: NA
Location:  40.58°N, 74.22°W
Report Text: KLDJ 260635Z AUTO 05006KT 10SM BKN031 OVC050 01/M10 A3003 RMK AO2 T00051098
Loading
Personal Weather Stations






























Interactive Weather Map New forecast layout! Learn more

10-Day Weather Forecast

Advertisements
Track Severe Weather on mobile